Terminal Aerodrome Forecast
Issued by NWS

Home | Current Version | Previous Version | Graphics & Text | Print | Product List | Glossary On
Versions: 1 2 3 4 5 6 7 8 9 10 11 12 13 14 15 16 17 18 19
000
FTUS43 KABR 272300
TAFMBG
TAF
KMBG 272329Z 2800/2824 14019KT P6SM SCT060 OVC100
     FM280300 13007KT P6SM SCT100 BKN250
     FM280900 VRB06KT 3SM BR SKC
     FM281500 12006KT P6SM SCT250=

USA.gov is the U.S. government's official web portal to all federal, state and local government web resources and services.